sensor_id;sensor_type;location;lat;lon;timestamp;P1;durP1;ratioP1;P2;durP2;ratioP2
22737;SDS011;11536;50.860;4.286;2022-09-13T00:00:55;4.57;;;2.03;;
22737;SDS011;11536;50.860;4.286;2022-09-13T00:03:22;4.70;;;2.30;;
22737;SDS011;11536;50.860;4.286;2022-09-13T00:05:48;5.20;;;2.30;;
22737;SDS011;11536;50.860;4.286;2022-09-13T00:08:14;6.15;;;2.20;;
22737;SDS011;11536;50.860;4.286;2022-09-13T00:10:41;5.85;;;2.20;;
22737;SDS011;11536;50.860;4.286;2022-09-13T00:13:08;6.82;;;2.47;;
22737;SDS011;11536;50.860;4.286;2022-09-13T00:15:34;5.43;;;2.40;;
22737;SDS011;11536;50.860;4.286;2022-09-13T00:18:01;4.53;;;2.33;;
22737;SDS011;11536;50.860;4.286;2022-09-13T00:20:27;9.85;;;2.28;;
22737;SDS011;11536;50.860;4.286;2022-09-13T00:22:53;6.45;;;2.53;;
22737;SDS011;11536;50.860;4.286;2022-09-13T00:25:18;5.05;;;2.50;;
22737;SDS011;11536;50.860;4.286;2022-09-13T00:27:44;6.13;;;2.45;;
22737;SDS011;11536;50.860;4.286;2022-09-13T00:30:10;5.10;;;2.50;;
22737;SDS011;11536;50.860;4.286;2022-09-13T00:32:37;4.78;;;2.25;;
22737;SDS011;11536;50.860;4.286;2022-09-13T00:35:03;7.03;;;2.58;;
22737;SDS011;11536;50.860;4.286;2022-09-13T00:37:30;5.85;;;2.47;;
22737;SDS011;11536;50.860;4.286;2022-09-13T00:39:57;6.07;;;2.70;;
22737;SDS011;11536;50.860;4.286;2022-09-13T00:42:26;6.25;;;2.30;;
22737;SDS011;11536;50.860;4.286;2022-09-13T00:44:55;4.65;;;2.30;;
22737;SDS011;11536;50.860;4.286;2022-09-13T00:47:30;6.28;;;2.45;;
22737;SDS011;11536;50.860;4.286;2022-09-13T00:50:10;6.25;;;2.50;;
22737;SDS011;11536;50.860;4.286;2022-09-13T00:53:10;7.53;;;2.40;;
22737;SDS011;11536;50.860;4.286;2022-09-13T00:55:43;6.65;;;2.05;;
22737;SDS011;11536;50.860;4.286;2022-09-13T00:58:21;6.45;;;2.00;;
22737;SDS011;11536;50.860;4.286;2022-09-13T01:00:53;7.18;;;2.08;;
22737;SDS011;11536;50.860;4.286;2022-09-13T01:03:23;4.72;;;2.40;;
22737;SDS011;11536;50.860;4.286;2022-09-13T01:05:53;5.05;;;2.22;;
22737;SDS011;11536;50.860;4.286;2022-09-13T01:08:23;5.07;;;2.20;;
22737;SDS011;11536;50.860;4.286;2022-09-13T01:10:50;6.32;;;2.10;;
22737;SDS011;11536;50.860;4.286;2022-09-13T01:13:18;4.93;;;1.95;;
22737;SDS011;11536;50.860;4.286;2022-09-13T01:15:48;4.57;;;1.85;;
22737;SDS011;11536;50.860;4.286;2022-09-13T01:18:14;4.45;;;1.98;;
22737;SDS011;11536;50.860;4.286;2022-09-13T01:29:13;4.43;;;2.10;;
22737;SDS011;11536;50.860;4.286;2022-09-13T01:32:09;5.63;;;2.60;;
22737;SDS011;11536;50.860;4.286;2022-09-13T01:40:27;4.47;;;2.10;;
22737;SDS011;11536;50.860;4.286;2022-09-13T01:51:42;6.03;;;2.35;;
22737;SDS011;11536;50.860;4.286;2022-09-13T01:54:11;5.72;;;2.28;;
22737;SDS011;11536;50.860;4.286;2022-09-13T01:59:21;6.45;;;2.10;;
22737;SDS011;11536;50.860;4.286;2022-09-13T02:02:02;5.05;;;2.13;;
22737;SDS011;11536;50.860;4.286;2022-09-13T02:04:42;4.50;;;2.10;;
22737;SDS011;11536;50.860;4.286;2022-09-13T02:07:15;6.82;;;2.13;;
22737;SDS011;11536;50.860;4.286;2022-09-13T02:09:45;5.65;;;1.80;;
22737;SDS011;11536;50.860;4.286;2022-09-13T02:12:19;5.88;;;2.10;;
22737;SDS011;11536;50.860;4.286;2022-09-13T02:14:50;5.63;;;2.00;;
22737;SDS011;11536;50.860;4.286;2022-09-13T02:17:29;4.57;;;1.75;;
22737;SDS011;11536;50.860;4.286;2022-09-13T02:20:02;3.75;;;1.83;;
22737;SDS011;11536;50.860;4.286;2022-09-13T02:22:37;5.15;;;1.90;;
22737;SDS011;11536;50.860;4.286;2022-09-13T02:25:09;4.00;;;2.00;;
22737;SDS011;11536;50.860;4.286;2022-09-13T02:27:37;5.50;;;2.20;;
22737;SDS011;11536;50.860;4.286;2022-09-13T02:30:07;6.10;;;2.17;;
22737;SDS011;11536;50.860;4.286;2022-09-13T02:32:41;4.97;;;2.15;;
22737;SDS011;11536;50.860;4.286;2022-09-13T02:35:48;3.92;;;1.70;;
22737;SDS011;11536;50.860;4.286;2022-09-13T02:38:25;4.35;;;1.90;;
22737;SDS011;11536;50.860;4.286;2022-09-13T02:41:06;4.22;;;2.10;;
22737;SDS011;11536;50.860;4.286;2022-09-13T02:43:40;5.63;;;2.28;;
22737;SDS011;11536;50.860;4.286;2022-09-13T02:49:10;4.78;;;1.90;;
22737;SDS011;11536;50.860;4.286;2022-09-13T02:51:55;5.50;;;2.10;;
22737;SDS011;11536;50.860;4.286;2022-09-13T02:57:27;3.65;;;1.52;;
22737;SDS011;11536;50.860;4.286;2022-09-13T02:59:55;6.05;;;2.10;;
22737;SDS011;11536;50.860;4.286;2022-09-13T03:02:21;5.50;;;1.70;;
22737;SDS011;11536;50.860;4.286;2022-09-13T03:04:50;6.65;;;2.38;;
22737;SDS011;11536;50.860;4.286;2022-09-13T03:07:15;4.35;;;1.98;;
22737;SDS011;11536;50.860;4.286;2022-09-13T03:09:42;4.53;;;1.85;;
22737;SDS011;11536;50.860;4.286;2022-09-13T03:31:20;5.22;;;2.33;;
22737;SDS011;11536;50.860;4.286;2022-09-13T03:37:04;3.80;;;1.77;;
22737;SDS011;11536;50.860;4.286;2022-09-13T03:43:00;4.25;;;2.00;;
22737;SDS011;11536;50.860;4.286;2022-09-13T03:45:12;5.03;;;2.15;;
22737;SDS011;11536;50.860;4.286;2022-09-13T03:47:40;5.30;;;1.90;;
22737;SDS011;11536;50.860;4.286;2022-09-13T03:50:09;5.38;;;2.00;;
22737;SDS011;11536;50.860;4.286;2022-09-13T03:52:38;6.28;;;2.10;;
22737;SDS011;11536;50.860;4.286;2022-09-13T03:55:04;4.45;;;1.77;;
22737;SDS011;11536;50.860;4.286;2022-09-13T03:57:30;4.47;;;1.75;;
22737;SDS011;11536;50.860;4.286;2022-09-13T03:59:55;4.65;;;2.15;;
22737;SDS011;11536;50.860;4.286;2022-09-13T04:02:22;6.18;;;2.10;;
22737;SDS011;11536;50.860;4.286;2022-09-13T04:04:49;5.30;;;2.15;;
22737;SDS011;11536;50.860;4.286;2022-09-13T04:07:16;5.53;;;2.00;;
22737;SDS011;11536;50.860;4.286;2022-09-13T04:09:46;5.13;;;2.20;;
22737;SDS011;11536;50.860;4.286;2022-09-13T04:12:12;3.97;;;2.00;;
22737;SDS011;11536;50.860;4.286;2022-09-13T04:14:40;5.22;;;2.20;;
22737;SDS011;11536;50.860;4.286;2022-09-13T04:17:07;4.65;;;1.98;;
22737;SDS011;11536;50.860;4.286;2022-09-13T04:19:33;5.28;;;2.10;;
22737;SDS011;11536;50.860;4.286;2022-09-13T04:21:59;5.32;;;2.00;;
22737;SDS011;11536;50.860;4.286;2022-09-13T04:24:25;5.38;;;1.90;;
22737;SDS011;11536;50.860;4.286;2022-09-13T04:26:52;4.78;;;2.33;;
22737;SDS011;11536;50.860;4.286;2022-09-13T04:29:18;5.10;;;2.38;;
22737;SDS011;11536;50.860;4.286;2022-09-13T04:31:45;9.07;;;1.95;;
22737;SDS011;11536;50.860;4.286;2022-09-13T04:34:12;6.60;;;2.58;;
22737;SDS011;11536;50.860;4.286;2022-09-13T04:36:38;6.45;;;2.58;;
22737;SDS011;11536;50.860;4.286;2022-09-13T04:39:04;5.95;;;2.30;;
22737;SDS011;11536;50.860;4.286;2022-09-13T04:41:29;5.18;;;2.30;;
22737;SDS011;11536;50.860;4.286;2022-09-13T04:43:59;4.50;;;2.40;;
22737;SDS011;11536;50.860;4.286;2022-09-13T04:46:25;5.53;;;2.38;;
22737;SDS011;11536;50.860;4.286;2022-09-13T04:48:51;4.68;;;2.20;;
22737;SDS011;11536;50.860;4.286;2022-09-13T04:51:17;5.15;;;2.38;;
22737;SDS011;11536;50.860;4.286;2022-09-13T04:53:45;4.00;;;2.03;;
22737;SDS011;11536;50.860;4.286;2022-09-13T04:56:16;4.63;;;1.90;;
22737;SDS011;11536;50.860;4.286;2022-09-13T04:58:43;6.13;;;2.40;;
22737;SDS011;11536;50.860;4.286;2022-09-13T05:01:09;7.38;;;2.10;;
22737;SDS011;11536;50.860;4.286;2022-09-13T05:03:35;5.20;;;2.38;;
22737;SDS011;11536;50.860;4.286;2022-09-13T05:06:02;6.50;;;2.33;;
22737;SDS011;11536;50.860;4.286;2022-09-13T05:08:29;6.78;;;2.17;;
22737;SDS011;11536;50.860;4.286;2022-09-13T05:10:55;4.72;;;2.13;;
22737;SDS011;11536;50.860;4.286;2022-09-13T05:13:20;5.78;;;2.47;;
22737;SDS011;11536;50.860;4.286;2022-09-13T05:15:46;7.00;;;2.65;;
22737;SDS011;11536;50.860;4.286;2022-09-13T05:18:12;5.70;;;2.80;;
22737;SDS011;11536;50.860;4.286;2022-09-13T05:20:37;6.05;;;2.50;;
22737;SDS011;11536;50.860;4.286;2022-09-13T05:23:03;5.45;;;2.30;;
22737;SDS011;11536;50.860;4.286;2022-09-13T05:25:28;4.10;;;2.33;;
22737;SDS011;11536;50.860;4.286;2022-09-13T05:27:54;6.00;;;2.45;;
22737;SDS011;11536;50.860;4.286;2022-09-13T05:30:19;4.30;;;2.08;;
22737;SDS011;11536;50.860;4.286;2022-09-13T05:32:45;6.45;;;2.50;;
22737;SDS011;11536;50.860;4.286;2022-09-13T05:35:11;5.50;;;2.00;;
22737;SDS011;11536;50.860;4.286;2022-09-13T05:37:37;5.72;;;2.50;;
22737;SDS011;11536;50.860;4.286;2022-09-13T05:40:03;6.95;;;2.90;;
22737;SDS011;11536;50.860;4.286;2022-09-13T05:42:29;7.65;;;2.60;;
22737;SDS011;11536;50.860;4.286;2022-09-13T05:44:55;6.25;;;2.50;;
22737;SDS011;11536;50.860;4.286;2022-09-13T05:47:21;4.45;;;2.30;;
22737;SDS011;11536;50.860;4.286;2022-09-13T05:49:47;6.40;;;2.28;;
22737;SDS011;11536;50.860;4.286;2022-09-13T05:52:12;6.43;;;2.55;;
22737;SDS011;11536;50.860;4.286;2022-09-13T05:54:38;4.20;;;2.28;;
22737;SDS011;11536;50.860;4.286;2022-09-13T05:57:03;4.93;;;2.20;;
22737;SDS011;11536;50.860;4.286;2022-09-13T05:59:29;5.38;;;2.17;;
22737;SDS011;11536;50.860;4.286;2022-09-13T06:01:55;7.68;;;2.30;;
22737;SDS011;11536;50.860;4.286;2022-09-13T06:04:21;9.25;;;2.80;;
22737;SDS011;11536;50.860;4.286;2022-09-13T06:06:47;6.88;;;2.20;;
22737;SDS011;11536;50.860;4.286;2022-09-13T06:09:13;6.82;;;2.58;;
22737;SDS011;11536;50.860;4.286;2022-09-13T06:11:39;6.13;;;2.35;;
22737;SDS011;11536;50.860;4.286;2022-09-13T06:14:04;6.45;;;2.40;;
22737;SDS011;11536;50.860;4.286;2022-09-13T06:16:30;9.88;;;2.65;;
22737;SDS011;11536;50.860;4.286;2022-09-13T06:18:56;9.18;;;2.55;;
22737;SDS011;11536;50.860;4.286;2022-09-13T06:21:22;4.68;;;2.08;;
22737;SDS011;11536;50.860;4.286;2022-09-13T06:23:49;6.90;;;2.17;;
22737;SDS011;11536;50.860;4.286;2022-09-13T06:26:17;5.95;;;2.13;;
22737;SDS011;11536;50.860;4.286;2022-09-13T06:28:48;5.25;;;2.30;;
22737;SDS011;11536;50.860;4.286;2022-09-13T06:31:16;7.25;;;2.50;;
22737;SDS011;11536;50.860;4.286;2022-09-13T06:33:43;5.05;;;2.40;;
22737;SDS011;11536;50.860;4.286;2022-09-13T06:36:11;5.95;;;2.10;;
22737;SDS011;11536;50.860;4.286;2022-09-13T06:38:47;5.00;;;2.10;;
22737;SDS011;11536;50.860;4.286;2022-09-13T06:41:14;4.97;;;2.45;;
22737;SDS011;11536;50.860;4.286;2022-09-13T06:43:45;5.32;;;2.40;;
22737;SDS011;11536;50.860;4.286;2022-09-13T06:46:15;5.45;;;2.55;;
22737;SDS011;11536;50.860;4.286;2022-09-13T06:48:43;6.45;;;2.55;;
22737;SDS011;11536;50.860;4.286;2022-09-13T06:51:13;6.35;;;2.50;;
22737;SDS011;11536;50.860;4.286;2022-09-13T06:53:40;8.73;;;2.50;;
22737;SDS011;11536;50.860;4.286;2022-09-13T06:56:08;6.07;;;2.72;;
22737;SDS011;11536;50.860;4.286;2022-09-13T06:58:39;5.85;;;2.70;;
22737;SDS011;11536;50.860;4.286;2022-09-13T07:01:07;7.75;;;2.67;;
22737;SDS011;11536;50.860;4.286;2022-09-13T07:03:39;5.18;;;2.30;;
22737;SDS011;11536;50.860;4.286;2022-09-13T07:06:11;7.30;;;2.65;;
22737;SDS011;11536;50.860;4.286;2022-09-13T07:08:42;5.60;;;2.38;;
22737;SDS011;11536;50.860;4.286;2022-09-13T07:11:09;7.43;;;2.90;;
22737;SDS011;11536;50.860;4.286;2022-09-13T07:13:37;6.13;;;2.80;;
22737;SDS011;11536;50.860;4.286;2022-09-13T07:16:04;5.32;;;2.40;;
22737;SDS011;11536;50.860;4.286;2022-09-13T07:18:31;7.78;;;3.10;;
22737;SDS011;11536;50.860;4.286;2022-09-13T07:21:01;10.38;;;3.10;;
22737;SDS011;11536;50.860;4.286;2022-09-13T07:23:32;6.00;;;2.80;;
22737;SDS011;11536;50.860;4.286;2022-09-13T07:25:58;8.73;;;2.38;;
22737;SDS011;11536;50.860;4.286;2022-09-13T07:28:30;5.88;;;2.80;;
22737;SDS011;11536;50.860;4.286;2022-09-13T07:31:03;6.13;;;2.78;;
22737;SDS011;11536;50.860;4.286;2022-09-13T07:33:29;8.05;;;2.90;;
22737;SDS011;11536;50.860;4.286;2022-09-13T07:35:55;6.78;;;3.00;;
22737;SDS011;11536;50.860;4.286;2022-09-13T07:38:21;12.43;;;3.22;;
22737;SDS011;11536;50.860;4.286;2022-09-13T07:40:56;9.65;;;4.03;;
22737;SDS011;11536;50.860;4.286;2022-09-13T07:43:24;8.88;;;4.00;;
22737;SDS011;11536;50.860;4.286;2022-09-13T07:46:24;7.03;;;3.45;;
22737;SDS011;11536;50.860;4.286;2022-09-13T07:48:44;10.40;;;3.40;;
22737;SDS011;11536;50.860;4.286;2022-09-13T07:51:23;6.32;;;3.53;;
22737;SDS011;11536;50.860;4.286;2022-09-13T07:53:51;12.77;;;3.63;;
22737;SDS011;11536;50.860;4.286;2022-09-13T07:56:22;7.55;;;3.40;;
22737;SDS011;11536;50.860;4.286;2022-09-13T07:58:49;10.10;;;3.53;;
22737;SDS011;11536;50.860;4.286;2022-09-13T08:01:28;8.65;;;3.67;;
22737;SDS011;11536;50.860;4.286;2022-09-13T08:03:59;9.52;;;3.60;;
22737;SDS011;11536;50.860;4.286;2022-09-13T08:06:27;8.60;;;3.25;;
22737;SDS011;11536;50.860;4.286;2022-09-13T08:08:54;6.07;;;2.80;;
22737;SDS011;11536;50.860;4.286;2022-09-13T08:11:21;7.80;;;2.85;;
22737;SDS011;11536;50.860;4.286;2022-09-13T08:13:55;8.52;;;3.08;;
22737;SDS011;11536;50.860;4.286;2022-09-13T08:16:21;6.30;;;3.45;;
22737;SDS011;11536;50.860;4.286;2022-09-13T08:18:49;6.70;;;3.15;;
22737;SDS011;11536;50.860;4.286;2022-09-13T08:21:16;7.55;;;3.17;;
22737;SDS011;11536;50.860;4.286;2022-09-13T08:23:42;8.30;;;3.47;;
22737;SDS011;11536;50.860;4.286;2022-09-13T08:26:08;8.55;;;3.00;;
22737;SDS011;11536;50.860;4.286;2022-09-13T08:28:34;6.53;;;3.15;;
22737;SDS011;11536;50.860;4.286;2022-09-13T08:31:02;5.07;;;2.90;;
22737;SDS011;11536;50.860;4.286;2022-09-13T08:33:29;9.85;;;3.05;;
22737;SDS011;11536;50.860;4.286;2022-09-13T08:35:54;7.82;;;2.60;;
22737;SDS011;11536;50.860;4.286;2022-09-13T08:38:22;6.90;;;2.95;;
22737;SDS011;11536;50.860;4.286;2022-09-13T08:40:55;9.60;;;3.97;;
22737;SDS011;11536;50.860;4.286;2022-09-13T08:51:50;6.82;;;3.28;;
22737;SDS011;11536;50.860;4.286;2022-09-13T08:54:20;9.90;;;3.55;;
22737;SDS011;11536;50.860;4.286;2022-09-13T08:59:48;7.28;;;3.50;;
22737;SDS011;11536;50.860;4.286;2022-09-13T09:02:27;9.38;;;3.95;;
22737;SDS011;11536;50.860;4.286;2022-09-13T09:05:15;8.80;;;3.67;;
22737;SDS011;11536;50.860;4.286;2022-09-13T09:07:43;8.77;;;3.47;;
22737;SDS011;11536;50.860;4.286;2022-09-13T09:10:28;11.43;;;3.75;;
22737;SDS011;11536;50.860;4.286;2022-09-13T09:15:41;8.95;;;3.80;;
22737;SDS011;11536;50.860;4.286;2022-09-13T09:18:17;8.27;;;3.92;;
22737;SDS011;11536;50.860;4.286;2022-09-13T09:23:20;9.82;;;4.38;;
22737;SDS011;11536;50.860;4.286;2022-09-13T09:25:46;8.25;;;4.40;;
22737;SDS011;11536;50.860;4.286;2022-09-13T09:28:16;8.55;;;3.92;;
22737;SDS011;11536;50.860;4.286;2022-09-13T09:34:13;10.57;;;4.20;;
22737;SDS011;11536;50.860;4.286;2022-09-13T09:36:22;11.70;;;3.97;;
22737;SDS011;11536;50.860;4.286;2022-09-13T09:38:59;10.00;;;4.82;;
22737;SDS011;11536;50.860;4.286;2022-09-13T09:41:31;11.00;;;4.30;;
22737;SDS011;11536;50.860;4.286;2022-09-13T09:44:17;9.27;;;4.68;;
22737;SDS011;11536;50.860;4.286;2022-09-13T09:46:47;8.20;;;4.28;;
22737;SDS011;11536;50.860;4.286;2022-09-13T09:52:28;10.25;;;4.53;;
22737;SDS011;11536;50.860;4.286;2022-09-13T09:55:51;13.18;;;5.10;;
22737;SDS011;11536;50.860;4.286;2022-09-13T09:58:03;11.48;;;4.50;;
22737;SDS011;11536;50.860;4.286;2022-09-13T10:00:32;10.32;;;4.72;;
22737;SDS011;11536;50.860;4.286;2022-09-13T10:03:18;13.00;;;4.53;;
22737;SDS011;11536;50.860;4.286;2022-09-13T10:05:45;7.13;;;4.10;;
22737;SDS011;11536;50.860;4.286;2022-09-13T10:08:30;10.45;;;4.28;;
22737;SDS011;11536;50.860;4.286;2022-09-13T10:10:58;12.82;;;4.97;;
22737;SDS011;11536;50.860;4.286;2022-09-13T10:13:26;11.88;;;4.93;;
22737;SDS011;11536;50.860;4.286;2022-09-13T10:15:56;9.43;;;4.57;;
22737;SDS011;11536;50.860;4.286;2022-09-13T10:18:28;13.65;;;4.57;;
22737;SDS011;11536;50.860;4.286;2022-09-13T10:21:02;7.45;;;3.38;;
22737;SDS011;11536;50.860;4.286;2022-09-13T10:23:44;11.82;;;3.88;;
22737;SDS011;11536;50.860;4.286;2022-09-13T10:26:21;13.10;;;4.90;;
22737;SDS011;11536;50.860;4.286;2022-09-13T10:31:33;11.43;;;4.50;;
22737;SDS011;11536;50.860;4.286;2022-09-13T10:34:06;11.30;;;4.88;;
22737;SDS011;11536;50.860;4.286;2022-09-13T10:39:36;11.25;;;3.95;;
22737;SDS011;11536;50.860;4.286;2022-09-13T10:42:05;15.82;;;4.68;;
22737;SDS011;11536;50.860;4.286;2022-09-13T10:44:40;13.88;;;5.22;;
22737;SDS011;11536;50.860;4.286;2022-09-13T10:47:11;14.07;;;5.20;;
22737;SDS011;11536;50.860;4.286;2022-09-13T10:49:54;9.67;;;4.37;;
22737;SDS011;11536;50.860;4.286;2022-09-13T10:57:43;12.55;;;4.05;;
22737;SDS011;11536;50.860;4.286;2022-09-13T11:00:09;12.93;;;4.40;;
22737;SDS011;11536;50.860;4.286;2022-09-13T11:13:20;15.05;;;4.30;;
22737;SDS011;11536;50.860;4.286;2022-09-13T11:33:29;13.60;;;4.55;;
22737;SDS011;11536;50.860;4.286;2022-09-13T11:39:08;10.27;;;4.82;;
22737;SDS011;11536;50.860;4.286;2022-09-13T11:44:31;10.60;;;4.65;;
22737;SDS011;11536;50.860;4.286;2022-09-13T11:47:41;10.98;;;5.30;;
22737;SDS011;11536;50.860;4.286;2022-09-13T11:55:41;7.53;;;3.20;;
22737;SDS011;11536;50.860;4.286;2022-09-13T11:58:18;9.20;;;3.63;;
22737;SDS011;11536;50.860;4.286;2022-09-13T12:01:06;8.30;;;3.75;;
22737;SDS011;11536;50.860;4.286;2022-09-13T12:03:49;11.13;;;4.30;;
22737;SDS011;11536;50.860;4.286;2022-09-13T12:06:24;10.45;;;4.40;;
22737;SDS011;11536;50.860;4.286;2022-09-13T12:09:19;10.90;;;4.32;;
22737;SDS011;11536;50.860;4.286;2022-09-13T12:11:51;8.38;;;3.67;;
22737;SDS011;11536;50.860;4.286;2022-09-13T12:14:22;9.23;;;3.93;;
22737;SDS011;11536;50.860;4.286;2022-09-13T12:16:53;8.63;;;3.65;;
22737;SDS011;11536;50.860;4.286;2022-09-13T12:22:05;9.75;;;3.38;;
22737;SDS011;11536;50.860;4.286;2022-09-13T12:24:40;6.18;;;3.00;;
22737;SDS011;11536;50.860;4.286;2022-09-13T12:27:09;6.32;;;2.70;;
22737;SDS011;11536;50.860;4.286;2022-09-13T12:29:43;7.90;;;2.50;;
22737;SDS011;11536;50.860;4.286;2022-09-13T12:32:14;9.25;;;2.63;;
22737;SDS011;11536;50.860;4.286;2022-09-13T12:34:43;6.50;;;1.92;;
22737;SDS011;11536;50.860;4.286;2022-09-13T12:53:23;8.73;;;3.03;;
22737;SDS011;11536;50.860;4.286;2022-09-13T13:01:31;7.18;;;2.95;;
22737;SDS011;11536;50.860;4.286;2022-09-13T13:03:58;10.15;;;3.13;;
22737;SDS011;11536;50.860;4.286;2022-09-13T13:06:40;8.40;;;3.15;;
22737;SDS011;11536;50.860;4.286;2022-09-13T13:09:22;10.70;;;3.05;;
22737;SDS011;11536;50.860;4.286;2022-09-13T13:11:52;8.02;;;3.45;;
22737;SDS011;11536;50.860;4.286;2022-09-13T13:14:41;7.15;;;3.55;;
22737;SDS011;11536;50.860;4.286;2022-09-13T13:20:37;7.22;;;3.15;;
22737;SDS011;11536;50.860;4.286;2022-09-13T13:33:55;9.27;;;3.17;;
22737;SDS011;11536;50.860;4.286;2022-09-13T13:36:44;6.32;;;3.25;;
22737;SDS011;11536;50.860;4.286;2022-09-13T13:46:44;8.38;;;3.40;;
22737;SDS011;11536;50.860;4.286;2022-09-13T13:57:28;9.50;;;3.92;;
22737;SDS011;11536;50.860;4.286;2022-09-13T14:00:16;8.40;;;3.55;;
22737;SDS011;11536;50.860;4.286;2022-09-13T14:05:30;8.35;;;3.90;;
22737;SDS011;11536;50.860;4.286;2022-09-13T14:08:29;8.13;;;3.58;;
22737;SDS011;11536;50.860;4.286;2022-09-13T14:11:19;7.93;;;3.60;;
22737;SDS011;11536;50.860;4.286;2022-09-13T14:21:39;8.75;;;3.63;;
22737;SDS011;11536;50.860;4.286;2022-09-13T14:26:39;9.88;;;3.78;;
22737;SDS011;11536;50.860;4.286;2022-09-13T14:29:06;9.40;;;3.28;;
22737;SDS011;11536;50.860;4.286;2022-09-13T14:31:32;10.25;;;3.90;;
22737;SDS011;11536;50.860;4.286;2022-09-13T14:33:58;9.27;;;3.80;;
22737;SDS011;11536;50.860;4.286;2022-09-13T14:36:23;9.43;;;4.38;;
22737;SDS011;11536;50.860;4.286;2022-09-13T14:38:53;7.82;;;4.60;;
22737;SDS011;11536;50.860;4.286;2022-09-13T14:41:32;8.70;;;4.90;;
22737;SDS011;11536;50.860;4.286;2022-09-13T14:44:14;8.70;;;5.07;;
22737;SDS011;11536;50.860;4.286;2022-09-13T14:46:50;10.35;;;5.38;;
22737;SDS011;11536;50.860;4.286;2022-09-13T14:49:24;8.90;;;4.38;;
22737;SDS011;11536;50.860;4.286;2022-09-13T14:51:55;8.45;;;4.55;;
22737;SDS011;11536;50.860;4.286;2022-09-13T14:54:33;11.45;;;4.53;;
22737;SDS011;11536;50.860;4.286;2022-09-13T14:57:26;9.55;;;4.90;;
22737;SDS011;11536;50.860;4.286;2022-09-13T14:59:59;7.65;;;4.43;;
22737;SDS011;11536;50.860;4.286;2022-09-13T15:02:41;7.85;;;4.43;;
22737;SDS011;11536;50.860;4.286;2022-09-13T15:05:20;9.35;;;4.43;;
22737;SDS011;11536;50.860;4.286;2022-09-13T15:07:51;10.88;;;5.90;;
22737;SDS011;11536;50.860;4.286;2022-09-13T15:12:53;10.50;;;6.00;;
22737;SDS011;11536;50.860;4.286;2022-09-13T15:17:55;10.18;;;5.00;;
22737;SDS011;11536;50.860;4.286;2022-09-13T15:20:26;11.93;;;5.60;;
22737;SDS011;11536;50.860;4.286;2022-09-13T15:23:26;12.68;;;6.55;;
22737;SDS011;11536;50.860;4.286;2022-09-13T15:26:05;10.57;;;5.93;;
22737;SDS011;11536;50.860;4.286;2022-09-13T15:28:52;14.10;;;7.60;;
22737;SDS011;11536;50.860;4.286;2022-09-13T15:37:02;16.13;;;7.47;;
22737;SDS011;11536;50.860;4.286;2022-09-13T15:42:16;17.55;;;8.13;;
22737;SDS011;11536;50.860;4.286;2022-09-13T15:44:42;14.45;;;8.60;;
22737;SDS011;11536;50.860;4.286;2022-09-13T15:47:17;15.85;;;8.25;;
22737;SDS011;11536;50.860;4.286;2022-09-13T15:49:48;12.55;;;8.15;;
22737;SDS011;11536;50.860;4.286;2022-09-13T15:52:15;11.82;;;8.43;;
22737;SDS011;11536;50.860;4.286;2022-09-13T15:54:42;13.95;;;9.23;;
22737;SDS011;11536;50.860;4.286;2022-09-13T15:57:18;15.55;;;8.98;;
22737;SDS011;11536;50.860;4.286;2022-09-13T15:59:47;14.70;;;8.77;;
22737;SDS011;11536;50.860;4.286;2022-09-13T16:02:18;13.77;;;8.15;;
22737;SDS011;11536;50.860;4.286;2022-09-13T16:04:48;12.35;;;8.23;;
22737;SDS011;11536;50.860;4.286;2022-09-13T16:07:14;13.40;;;7.70;;
22737;SDS011;11536;50.860;4.286;2022-09-13T16:09:40;13.75;;;8.80;;
22737;SDS011;11536;50.860;4.286;2022-09-13T16:12:06;19.65;;;10.02;;
22737;SDS011;11536;50.860;4.286;2022-09-13T16:14:32;13.50;;;8.20;;
22737;SDS011;11536;50.860;4.286;2022-09-13T16:16:59;13.25;;;8.73;;
22737;SDS011;11536;50.860;4.286;2022-09-13T16:19:31;14.33;;;9.00;;
22737;SDS011;11536;50.860;4.286;2022-09-13T16:21:56;14.27;;;8.85;;
22737;SDS011;11536;50.860;4.286;2022-09-13T16:24:22;14.52;;;8.70;;
22737;SDS011;11536;50.860;4.286;2022-09-13T16:26:48;16.35;;;9.82;;
22737;SDS011;11536;50.860;4.286;2022-09-13T16:29:13;16.02;;;8.65;;
22737;SDS011;11536;50.860;4.286;2022-09-13T16:31:39;24.40;;;9.45;;
22737;SDS011;11536;50.860;4.286;2022-09-13T16:34:05;19.20;;;9.10;;
22737;SDS011;11536;50.860;4.286;2022-09-13T16:36:30;14.63;;;9.77;;
22737;SDS011;11536;50.860;4.286;2022-09-13T16:38:58;19.42;;;9.27;;
22737;SDS011;11536;50.860;4.286;2022-09-13T16:41:23;18.85;;;9.70;;
22737;SDS011;11536;50.860;4.286;2022-09-13T16:43:49;15.00;;;9.20;;
22737;SDS011;11536;50.860;4.286;2022-09-13T16:46:14;15.70;;;10.52;;
22737;SDS011;11536;50.860;4.286;2022-09-13T16:48:43;15.70;;;9.30;;
22737;SDS011;11536;50.860;4.286;2022-09-13T16:51:12;18.33;;;11.05;;
22737;SDS011;11536;50.860;4.286;2022-09-13T16:53:38;18.58;;;10.57;;
22737;SDS011;11536;50.860;4.286;2022-09-13T16:56:13;18.35;;;11.80;;
22737;SDS011;11536;50.860;4.286;2022-09-13T16:58:41;17.95;;;10.65;;
22737;SDS011;11536;50.860;4.286;2022-09-13T17:01:11;15.77;;;10.75;;
22737;SDS011;11536;50.860;4.286;2022-09-13T17:03:38;16.42;;;11.77;;
22737;SDS011;11536;50.860;4.286;2022-09-13T17:06:06;15.98;;;10.35;;
22737;SDS011;11536;50.860;4.286;2022-09-13T17:08:35;16.90;;;10.95;;
22737;SDS011;11536;50.860;4.286;2022-09-13T17:11:05;17.58;;;10.38;;
22737;SDS011;11536;50.860;4.286;2022-09-13T17:13:33;15.10;;;10.10;;
22737;SDS011;11536;50.860;4.286;2022-09-13T17:15:59;14.80;;;10.05;;
22737;SDS011;11536;50.860;4.286;2022-09-13T17:18:24;15.05;;;9.82;;
22737;SDS011;11536;50.860;4.286;2022-09-13T17:20:50;13.60;;;9.75;;
22737;SDS011;11536;50.860;4.286;2022-09-13T17:23:16;13.13;;;8.82;;
22737;SDS011;11536;50.860;4.286;2022-09-13T17:25:42;19.08;;;11.32;;
22737;SDS011;11536;50.860;4.286;2022-09-13T17:28:14;16.88;;;10.60;;
22737;SDS011;11536;50.860;4.286;2022-09-13T17:30:40;17.77;;;10.75;;
22737;SDS011;11536;50.860;4.286;2022-09-13T17:33:07;15.77;;;10.60;;
22737;SDS011;11536;50.860;4.286;2022-09-13T17:35:33;18.30;;;12.93;;
22737;SDS011;11536;50.860;4.286;2022-09-13T17:37:59;17.95;;;12.25;;
22737;SDS011;11536;50.860;4.286;2022-09-13T17:40:26;20.65;;;12.95;;
22737;SDS011;11536;50.860;4.286;2022-09-13T17:42:52;17.13;;;11.70;;
22737;SDS011;11536;50.860;4.286;2022-09-13T17:45:17;15.75;;;12.18;;
22737;SDS011;11536;50.860;4.286;2022-09-13T17:47:47;21.23;;;13.60;;
22737;SDS011;11536;50.860;4.286;2022-09-13T17:50:16;17.30;;;12.73;;
22737;SDS011;11536;50.860;4.286;2022-09-13T17:52:44;16.33;;;12.82;;
22737;SDS011;11536;50.860;4.286;2022-09-13T17:55:10;20.10;;;12.27;;
22737;SDS011;11536;50.860;4.286;2022-09-13T17:57:36;17.23;;;11.98;;
22737;SDS011;11536;50.860;4.286;2022-09-13T18:00:03;14.35;;;10.63;;
22737;SDS011;11536;50.860;4.286;2022-09-13T18:02:30;20.08;;;13.18;;
22737;SDS011;11536;50.860;4.286;2022-09-13T18:04:56;19.40;;;13.73;;
22737;SDS011;11536;50.860;4.286;2022-09-13T18:07:21;19.23;;;12.80;;
22737;SDS011;11536;50.860;4.286;2022-09-13T18:09:47;20.38;;;14.02;;
22737;SDS011;11536;50.860;4.286;2022-09-13T18:12:13;19.23;;;12.48;;
22737;SDS011;11536;50.860;4.286;2022-09-13T18:14:39;17.83;;;13.77;;
22737;SDS011;11536;50.860;4.286;2022-09-13T18:17:05;20.38;;;15.05;;
22737;SDS011;11536;50.860;4.286;2022-09-13T18:19:38;18.60;;;13.90;;
22737;SDS011;11536;50.860;4.286;2022-09-13T18:22:05;19.60;;;14.20;;
22737;SDS011;11536;50.860;4.286;2022-09-13T18:24:34;21.08;;;14.38;;
22737;SDS011;11536;50.860;4.286;2022-09-13T18:27:00;21.67;;;14.02;;
22737;SDS011;11536;50.860;4.286;2022-09-13T18:29:26;22.33;;;14.75;;
22737;SDS011;11536;50.860;4.286;2022-09-13T18:31:56;18.40;;;14.82;;